createdAt,value
2018-11-27T00:00:43.471Z,0.00
2018-11-27T00:01:43.445Z,0.00
2018-11-27T00:02:43.459Z,0.00
2018-11-27T00:03:43.425Z,0.00
2018-11-27T00:04:43.424Z,0.00
2018-11-27T00:05:43.408Z,0.00
2018-11-27T00:06:43.396Z,0.00
2018-11-27T00:07:43.386Z,0.00
2018-11-27T00:08:43.386Z,0.00
2018-11-27T00:09:43.359Z,0.00
2018-11-27T00:10:43.379Z,0.00
2018-11-27T00:11:43.342Z,0.00
2018-11-27T00:12:43.336Z,0.00
2018-11-27T00:13:43.321Z,0.00
2018-11-27T00:14:43.308Z,0.00
2018-11-27T00:15:43.294Z,0.00
2018-11-27T00:16:43.326Z,0.00
2018-11-27T00:17:43.273Z,0.00
2018-11-27T00:18:43.268Z,0.00
2018-11-27T00:19:43.257Z,0.00
2018-11-27T00:20:43.245Z,0.00
2018-11-27T00:21:43.231Z,0.00
2018-11-27T00:22:43.239Z,0.00
2018-11-27T00:23:43.221Z,0.00
2018-11-27T00:24:43.200Z,0.00
2018-11-27T00:25:43.209Z,0.00
2018-11-27T00:26:43.184Z,0.00
2018-11-27T00:27:43.213Z,0.00
2018-11-27T00:28:43.156Z,0.00
2018-11-27T00:29:43.151Z,0.00
2018-11-27T00:30:43.152Z,0.00
2018-11-27T00:31:43.130Z,0.00
2018-11-27T00:32:43.119Z,0.00
2018-11-27T00:33:43.144Z,0.00
2018-11-27T00:34:43.101Z,0.00
2018-11-27T00:35:43.088Z,0.00
2018-11-27T00:36:43.072Z,0.00
2018-11-27T00:37:43.066Z,0.00
2018-11-27T00:38:43.053Z,0.00
2018-11-27T00:39:43.058Z,0.00
2018-11-27T00:40:43.045Z,0.00
2018-11-27T00:41:43.024Z,0.00
2018-11-27T00:42:43.015Z,0.00
2018-11-27T00:43:43.001Z,0.00
2018-11-27T00:44:43.023Z,0.00
2018-11-27T00:45:42.981Z,0.00
2018-11-27T00:46:42.975Z,0.00
2018-11-27T00:47:42.956Z,0.00
2018-11-27T00:48:42.954Z,0.00
2018-11-27T00:49:42.940Z,0.00
2018-11-27T00:50:42.956Z,0.00
2018-11-27T00:51:42.923Z,0.00
2018-11-27T00:52:42.904Z,0.00
2018-11-27T00:53:42.899Z,0.00
2018-11-27T00:54:42.885Z,0.00
2018-11-27T00:55:42.878Z,0.00
2018-11-27T00:56:42.872Z,0.00
2018-11-27T00:57:42.859Z,0.00
2018-11-27T00:58:42.846Z,0.00
2018-11-27T00:59:42.832Z,0.00
2018-11-27T01:00:42.827Z,0.00
2018-11-27T01:01:42.816Z,0.00
2018-11-27T01:02:42.811Z,0.00
2018-11-27T01:03:42.788Z,0.00
2018-11-27T01:04:42.785Z,0.00
2018-11-27T01:05:42.769Z,0.00
2018-11-27T01:06:42.763Z,0.00
2018-11-27T01:07:42.780Z,0.00
2018-11-27T01:08:42.742Z,0.00
2018-11-27T01:09:42.725Z,0.00
2018-11-27T01:10:42.721Z,0.00
2018-11-27T01:11:42.711Z,0.00
2018-11-27T01:12:42.703Z,0.00
2018-11-27T01:13:42.697Z,0.00
2018-11-27T01:14:42.682Z,0.00
2018-11-27T01:15:42.663Z,0.00
2018-11-27T01:16:42.661Z,0.00
2018-11-27T01:17:42.647Z,0.00
2018-11-27T01:18:42.648Z,0.00
2018-11-27T01:19:42.626Z,0.00
2018-11-27T01:20:42.616Z,0.00
2018-11-27T01:21:42.605Z,0.00
2018-11-27T01:22:42.591Z,0.00
2018-11-27T01:23:42.654Z,0.00
2018-11-27T01:24:42.571Z,0.00
2018-11-27T01:25:42.564Z,0.00
2018-11-27T01:26:42.553Z,0.00
2018-11-27T01:27:42.543Z,0.00
2018-11-27T01:28:42.538Z,0.00
2018-11-27T01:29:42.553Z,0.00
2018-11-27T01:30:42.512Z,0.00
2018-11-27T01:31:42.494Z,0.00
2018-11-27T01:32:42.531Z,0.00
2018-11-27T01:33:42.480Z,0.00
2018-11-27T01:34:42.470Z,0.00
2018-11-27T01:35:42.493Z,0.00
2018-11-27T01:36:42.444Z,0.00
2018-11-27T01:37:42.436Z,0.00
2018-11-27T01:38:42.429Z,0.00
2018-11-27T01:39:42.411Z,0.00
2018-11-27T01:40:42.406Z,0.00
2018-11-27T01:41:42.411Z,0.00
2018-11-27T01:42:42.389Z,0.00
2018-11-27T01:43:42.482Z,0.00
2018-11-27T01:44:42.361Z,0.00
2018-11-27T01:45:42.356Z,0.00
2018-11-27T01:46:42.345Z,0.00
2018-11-27T01:47:42.335Z,0.00
2018-11-27T01:48:42.317Z,0.00
2018-11-27T01:49:42.348Z,0.00
2018-11-27T01:50:42.293Z,0.00
2018-11-27T01:51:42.286Z,0.00
2018-11-27T01:52:42.276Z,0.00
2018-11-27T01:53:42.274Z,0.00
2018-11-27T01:54:42.253Z,0.00
2018-11-27T01:55:42.256Z,0.00
2018-11-27T01:56:42.240Z,0.00
2018-11-27T01:57:42.238Z,0.00
2018-11-27T01:58:42.253Z,0.00
2018-11-27T01:59:42.209Z,0.00
2018-11-27T02:00:42.195Z,0.00
2018-11-27T02:01:42.184Z,0.00
2018-11-27T02:02:42.172Z,0.00
2018-11-27T02:03:42.164Z,0.00
2018-11-27T02:04:42.192Z,0.00
2018-11-27T02:05:42.138Z,0.00
2018-11-27T02:06:42.132Z,0.00
2018-11-27T02:07:42.120Z,0.00
2018-11-27T02:08:42.106Z,0.00
2018-11-27T02:09:42.093Z,0.00
2018-11-27T02:10:42.094Z,0.00
2018-11-27T02:11:42.078Z,0.00
2018-11-27T02:12:42.097Z,0.00
2018-11-27T02:13:42.052Z,0.00
2018-11-27T02:14:42.049Z,0.00
2018-11-27T02:15:42.036Z,0.00
2018-11-27T02:16:42.025Z,0.00
2018-11-27T02:17:42.018Z,0.00
2018-11-27T02:18:42.017Z,0.00
2018-11-27T02:19:41.989Z,0.00
2018-11-27T02:20:41.985Z,0.00
2018-11-27T02:21:41.969Z,0.00
2018-11-27T02:22:41.962Z,0.00
2018-11-27T02:23:41.959Z,0.00
2018-11-27T02:24:41.939Z,0.00
2018-11-27T02:25:41.934Z,0.00
2018-11-27T02:26:41.913Z,0.00
2018-11-27T02:27:41.913Z,0.00
2018-11-27T02:28:41.909Z,0.00
2018-11-27T02:29:41.885Z,0.00
2018-11-27T02:30:41.884Z,0.00
2018-11-27T02:31:41.868Z,0.00
2018-11-27T02:32:41.853Z,0.00
2018-11-27T02:33:41.846Z,0.00
2018-11-27T02:34:41.831Z,0.00
2018-11-27T02:35:41.879Z,0.00
2018-11-27T02:36:41.815Z,0.00
2018-11-27T02:37:41.800Z,0.00
2018-11-27T02:38:41.811Z,0.00
2018-11-27T02:39:41.778Z,0.00
2018-11-27T02:40:41.771Z,0.00
2018-11-27T02:41:41.796Z,0.00
2018-11-27T02:42:41.751Z,0.00
2018-11-27T02:43:41.740Z,0.00
2018-11-27T02:44:41.724Z,0.00
2018-11-27T02:45:41.735Z,0.00
2018-11-27T02:46:41.704Z,0.00
2018-11-27T02:47:41.693Z,0.00
2018-11-27T02:48:41.686Z,0.00
2018-11-27T02:49:41.675Z,0.00
2018-11-27T02:50:41.702Z,0.00
2018-11-27T02:51:41.653Z,0.00
2018-11-27T02:52:41.663Z,0.00
2018-11-27T02:53:41.628Z,0.00
2018-11-27T02:54:41.624Z,0.00
2018-11-27T02:55:41.608Z,0.00
2018-11-27T02:56:41.649Z,0.00
2018-11-27T02:57:41.590Z,0.00
2018-11-27T02:58:41.578Z,0.00
2018-11-27T02:59:41.566Z,0.00
2018-11-27T03:00:41.560Z,0.00
2018-11-27T03:01:41.548Z,0.00
2018-11-27T03:02:41.570Z,0.00
2018-11-27T03:03:41.531Z,0.00
2018-11-27T03:04:41.511Z,0.00
2018-11-27T03:05:41.503Z,0.00
2018-11-27T03:06:41.515Z,0.00
2018-11-27T03:07:41.484Z,0.00
2018-11-27T03:08:41.486Z,0.00
2018-11-27T03:09:41.465Z,0.00
2018-11-27T03:10:41.452Z,0.00
2018-11-27T03:11:41.441Z,0.00
2018-11-27T03:12:41.426Z,0.00
2018-11-27T03:13:41.466Z,0.00
2018-11-27T03:14:41.406Z,0.00
2018-11-27T03:15:41.399Z,0.00
2018-11-27T03:16:41.390Z,0.00
2018-11-27T03:17:41.376Z,0.00
2018-11-27T03:18:41.364Z,0.00
2018-11-27T03:19:41.369Z,0.00
2018-11-27T03:20:41.373Z,0.00
2018-11-27T03:21:41.337Z,0.00
2018-11-27T03:22:41.328Z,0.00
2018-11-27T03:23:41.349Z,0.00
2018-11-27T03:24:41.305Z,0.00
2018-11-27T03:25:41.289Z,0.00
2018-11-27T03:26:41.280Z,0.00
2018-11-27T03:27:41.289Z,0.00
2018-11-27T03:28:41.257Z,0.00
2018-11-27T03:29:41.267Z,0.00
2018-11-27T03:30:41.243Z,0.00
2018-11-27T03:31:41.227Z,0.00
2018-11-27T03:32:41.218Z,0.00
2018-11-27T03:33:41.245Z,0.00
2018-11-27T03:34:41.199Z,0.00
2018-11-27T03:35:41.184Z,0.00
2018-11-27T03:36:41.174Z,0.00
2018-11-27T03:37:41.170Z,0.00
2018-11-27T03:38:41.151Z,0.00
2018-11-27T03:39:41.177Z,0.00
2018-11-27T03:40:41.129Z,0.00
2018-11-27T03:41:41.126Z,0.00
2018-11-27T03:42:41.110Z,0.00
2018-11-27T03:43:41.105Z,0.00
2018-11-27T03:44:41.089Z,0.00
2018-11-27T03:45:41.092Z,0.00
2018-11-27T03:46:41.084Z,0.00
2018-11-27T03:47:41.062Z,0.00
2018-11-27T03:48:41.045Z,0.00
2018-11-27T03:49:41.034Z,0.00
2018-11-27T03:50:41.057Z,0.00
2018-11-27T03:51:41.013Z,0.00
2018-11-27T03:52:41.011Z,0.00
2018-11-27T03:53:41.003Z,0.00
2018-11-27T03:54:40.987Z,0.00
2018-11-27T03:55:40.971Z,0.00
2018-11-27T03:56:40.973Z,0.00
2018-11-27T03:57:40.960Z,0.00
2018-11-27T03:58:40.939Z,0.00
2018-11-27T03:59:40.938Z,0.00
2018-11-27T04:00:40.940Z,0.00
2018-11-27T04:01:40.910Z,0.00
2018-11-27T04:02:40.943Z,0.00
2018-11-27T04:03:40.893Z,0.00
2018-11-27T04:04:40.885Z,0.00
2018-11-27T04:05:40.871Z,0.00
2018-11-27T04:06:40.855Z,0.00
2018-11-27T04:07:40.844Z,0.00
2018-11-27T04:08:40.851Z,0.00
2018-11-27T04:09:40.849Z,0.00
2018-11-27T04:10:40.811Z,0.00
2018-11-27T04:11:40.806Z,0.00
2018-11-27T04:12:40.799Z,0.00
2018-11-27T04:13:40.817Z,0.00
2018-11-27T04:14:40.775Z,0.00
2018-11-27T04:15:40.766Z,0.00
2018-11-27T04:16:40.755Z,0.00
2018-11-27T04:17:40.744Z,0.00
2018-11-27T04:18:40.736Z,0.00
2018-11-27T04:19:40.733Z,0.00
2018-11-27T04:20:40.749Z,0.00
2018-11-27T04:21:40.701Z,0.00
2018-11-27T04:22:40.700Z,0.00
2018-11-27T04:23:40.679Z,0.00
2018-11-27T04:24:40.680Z,0.00
2018-11-27T04:25:40.653Z,0.00
2018-11-27T04:26:40.653Z,0.00
2018-11-27T04:27:40.644Z,0.00
2018-11-27T04:28:40.632Z,0.00
2018-11-27T04:29:40.621Z,0.00
2018-11-27T04:30:40.609Z,0.00
2018-11-27T04:31:40.595Z,0.00
2018-11-27T04:32:40.589Z,0.00
2018-11-27T04:33:40.574Z,0.00
2018-11-27T04:34:40.568Z,0.00
2018-11-27T04:35:40.556Z,0.00
2018-11-27T04:36:40.543Z,0.00
2018-11-27T04:37:40.567Z,0.00
2018-11-27T04:38:40.514Z,0.00
2018-11-27T04:39:40.510Z,0.00
2018-11-27T04:40:40.501Z,0.00
2018-11-27T04:41:40.486Z,0.00
2018-11-27T04:42:40.478Z,0.00
2018-11-27T04:43:40.475Z,0.00
2018-11-27T04:44:40.461Z,0.00
2018-11-27T04:45:40.449Z,0.00
2018-11-27T04:46:40.436Z,0.00
2018-11-27T04:47:40.423Z,0.00
2018-11-27T04:48:40.448Z,0.00
2018-11-27T04:49:40.400Z,0.00
2018-11-27T04:50:40.399Z,0.00
2018-11-27T04:51:40.384Z,0.00
2018-11-27T04:52:40.369Z,0.00
2018-11-27T04:53:40.360Z,0.00
2018-11-27T04:54:40.358Z,0.00
2018-11-27T04:55:40.397Z,0.00
2018-11-27T04:56:40.327Z,0.00
2018-11-27T04:57:40.323Z,0.00
2018-11-27T04:58:40.313Z,0.00
2018-11-27T04:59:40.295Z,0.00
2018-11-27T05:00:40.292Z,0.00
2018-11-27T05:01:40.285Z,0.00
2018-11-27T05:02:40.270Z,0.00
2018-11-27T05:03:40.259Z,0.00
2018-11-27T05:04:40.250Z,0.00
2018-11-27T05:05:40.238Z,0.00
2018-11-27T05:06:40.262Z,0.00
2018-11-27T05:07:40.211Z,0.00
2018-11-27T05:08:40.206Z,0.00
2018-11-27T05:09:40.193Z,0.00
2018-11-27T05:10:40.187Z,0.00
2018-11-27T05:11:40.174Z,0.00
2018-11-27T05:12:40.197Z,0.00
2018-11-27T05:13:40.174Z,0.00
2018-11-27T05:14:40.145Z,0.00
2018-11-27T05:15:40.132Z,0.00
2018-11-27T05:16:40.122Z,0.00
2018-11-27T05:17:40.120Z,0.00
2018-11-27T05:18:40.112Z,0.00
2018-11-27T05:19:40.084Z,0.00
2018-11-27T05:20:40.081Z,0.00
2018-11-27T05:21:40.070Z,0.00
2018-11-27T05:22:40.058Z,0.00
2018-11-27T05:23:40.047Z,0.00
2018-11-27T05:24:40.085Z,0.00
2018-11-27T05:25:40.028Z,0.00
2018-11-27T05:26:40.032Z,0.00
2018-11-27T05:27:40.014Z,0.00
2018-11-27T05:28:39.998Z,0.00
2018-11-27T05:29:40.011Z,0.00
2018-11-27T05:30:39.970Z,0.00
2018-11-27T05:31:39.967Z,0.00
2018-11-27T05:32:39.955Z,0.00
2018-11-27T05:33:39.941Z,0.00
2018-11-27T05:34:39.936Z,0.00
2018-11-27T05:35:39.937Z,0.00
2018-11-27T05:36:39.912Z,0.00
2018-11-27T05:37:39.897Z,0.00
2018-11-27T05:38:39.891Z,0.00
2018-11-27T05:39:39.890Z,0.00
2018-11-27T05:40:39.875Z,0.00
2018-11-27T05:41:39.898Z,0.00
2018-11-27T05:42:39.846Z,0.00
2018-11-27T05:43:39.835Z,0.00
2018-11-27T05:44:39.829Z,0.00
2018-11-27T05:45:39.816Z,0.00
2018-11-27T05:46:39.807Z,0.00
2018-11-27T05:47:39.834Z,0.00
2018-11-27T05:48:39.786Z,0.00
2018-11-27T05:49:39.774Z,0.00
2018-11-27T05:50:39.766Z,0.00
2018-11-27T05:51:39.752Z,0.00
2018-11-27T05:52:39.742Z,0.00
2018-11-27T05:53:39.755Z,0.00
2018-11-27T05:54:39.726Z,0.00
2018-11-27T05:55:39.721Z,0.00
2018-11-27T05:56:39.743Z,0.00
2018-11-27T05:57:39.697Z,0.00
2018-11-27T05:58:39.718Z,0.00
2018-11-27T05:59:39.674Z,0.00
2018-11-27T06:00:39.659Z,0.00
2018-11-27T06:01:39.655Z,0.00
2018-11-27T06:02:39.654Z,0.00
2018-11-27T06:03:39.635Z,0.00
2018-11-27T06:04:39.621Z,0.00
2018-11-27T06:05:39.612Z,0.00
2018-11-27T06:06:39.601Z,0.00
2018-11-27T06:07:39.599Z,0.00
2018-11-27T06:08:39.575Z,0.00
2018-11-27T06:09:39.565Z,0.00
2018-11-27T06:10:39.601Z,0.00
2018-11-27T06:11:39.544Z,0.00
2018-11-27T06:12:39.544Z,4.00
2018-11-27T06:13:39.527Z,4.00
2018-11-27T06:14:39.512Z,4.00
2018-11-27T06:15:39.507Z,0.00
2018-11-27T06:16:39.500Z,0.00
2018-11-27T06:17:39.481Z,4.00
2018-11-27T06:18:39.484Z,4.00
2018-11-27T06:19:39.471Z,4.00
2018-11-27T06:20:39.449Z,4.00
2018-11-27T06:21:39.440Z,4.00
2018-11-27T06:22:39.429Z,4.00
2018-11-27T06:23:39.455Z,8.00
2018-11-27T06:24:39.409Z,4.00
2018-11-27T06:25:39.398Z,8.00
2018-11-27T06:26:39.395Z,8.00
2018-11-27T06:27:39.376Z,8.00
2018-11-27T06:28:39.367Z,16.00
2018-11-27T06:29:39.370Z,16.00
2018-11-27T06:30:39.353Z,16.00
2018-11-27T06:31:39.338Z,20.00
2018-11-27T06:32:39.333Z,24.00
2018-11-27T06:33:39.322Z,24.00
2018-11-27T06:34:39.340Z,24.00
2018-11-27T06:35:39.296Z,28.00
2018-11-27T06:36:39.297Z,36.00
2018-11-27T06:37:39.276Z,36.00
2018-11-27T06:38:39.269Z,40.00
2018-11-27T06:39:39.259Z,44.00
2018-11-27T06:40:39.250Z,48.00
2018-11-27T06:41:39.239Z,52.00
2018-11-27T06:42:39.222Z,56.00
2018-11-27T06:43:39.217Z,64.00
2018-11-27T06:44:39.209Z,64.00
2018-11-27T06:45:39.209Z,72.00
2018-11-27T06:46:39.183Z,76.00
2018-11-27T06:47:39.169Z,80.00
2018-11-27T06:48:39.170Z,88.00
2018-11-27T06:49:39.155Z,92.00
2018-11-27T06:50:39.147Z,100.00
2018-11-27T06:51:39.138Z,108.00
2018-11-27T06:52:39.126Z,116.00
2018-11-27T06:53:39.113Z,124.00
2018-11-27T06:54:39.101Z,132.00
2018-11-27T06:55:39.133Z,144.00
2018-11-27T06:56:39.079Z,152.00
2018-11-27T06:57:39.068Z,160.00
2018-11-27T06:58:39.062Z,176.00
2018-11-27T06:59:39.051Z,188.00
2018-11-27T07:00:39.041Z,200.00
2018-11-27T07:01:39.038Z,212.00
2018-11-27T07:02:39.020Z,228.00
2018-11-27T07:03:39.009Z,240.00
2018-11-27T07:04:38.999Z,256.00
2018-11-27T07:05:38.992Z,272.00
2018-11-27T07:06:38.991Z,284.00
2018-11-27T07:07:38.970Z,300.00
2018-11-27T07:08:38.962Z,316.00
2018-11-27T07:09:38.942Z,332.00
2018-11-27T07:10:38.937Z,348.00
2018-11-27T07:11:38.961Z,368.00
2018-11-27T07:12:38.913Z,380.00
2018-11-27T07:13:38.902Z,400.00
2018-11-27T07:14:38.891Z,420.00
2018-11-27T07:15:38.880Z,432.00
2018-11-27T07:16:38.871Z,448.00
2018-11-27T07:17:38.873Z,468.00
2018-11-27T07:18:38.854Z,484.00
2018-11-27T07:19:38.840Z,504.00
2018-11-27T07:20:38.827Z,528.00
2018-11-27T07:21:38.835Z,548.00
2018-11-27T07:22:38.851Z,560.00
2018-11-27T07:23:38.797Z,584.00
2018-11-27T07:24:38.798Z,608.00
2018-11-27T07:25:38.781Z,624.00
2018-11-27T07:26:38.766Z,640.00
2018-11-27T07:27:38.768Z,660.00
2018-11-27T07:28:38.755Z,684.00
2018-11-27T07:29:38.735Z,708.00
2018-11-27T07:30:38.728Z,732.00
2018-11-27T07:31:38.720Z,760.00
2018-11-27T07:32:38.706Z,784.00
2018-11-27T07:33:38.701Z,820.00
2018-11-27T07:34:38.707Z,860.00
2018-11-27T07:35:38.669Z,896.00
2018-11-27T07:36:38.666Z,928.00
2018-11-27T07:37:38.655Z,972.00
2018-11-27T07:38:38.643Z,1016.00
2018-11-27T07:39:38.632Z,1056.00
2018-11-27T07:40:38.662Z,1096.00
2018-11-27T07:41:38.606Z,1140.00
2018-11-27T07:42:38.599Z,1172.00
2018-11-27T07:43:38.591Z,1208.00
2018-11-27T07:44:38.574Z,1244.00
2018-11-27T07:45:38.566Z,1284.00
2018-11-27T07:46:38.564Z,1340.00
2018-11-27T07:47:38.542Z,1344.00
2018-11-27T07:48:38.546Z,1364.00
2018-11-27T07:49:38.527Z,1396.00
2018-11-27T07:50:38.510Z,1428.00
2018-11-27T07:51:38.503Z,1460.00
2018-11-27T07:52:38.490Z,1476.00
2018-11-27T07:53:38.486Z,1512.00
2018-11-27T07:54:38.470Z,1548.00
2018-11-27T07:55:38.462Z,1580.00
2018-11-27T07:56:38.446Z,1640.00
2018-11-27T07:57:38.436Z,1672.00
2018-11-27T07:58:38.492Z,1708.00
2018-11-27T07:59:38.421Z,1740.00
2018-11-27T08:00:38.414Z,1760.00
2018-11-27T08:01:38.400Z,1784.00
2018-11-27T08:02:38.394Z,1816.00
2018-11-27T08:03:38.386Z,1848.00
2018-11-27T08:04:38.369Z,1896.00
2018-11-27T08:05:38.352Z,1944.00
2018-11-27T08:06:38.344Z,1972.00
2018-11-27T08:07:38.334Z,2016.00
2018-11-27T08:08:38.330Z,2032.00
2018-11-27T08:09:38.312Z,2052.00
2018-11-27T08:10:38.310Z,2124.00
2018-11-27T08:11:38.302Z,2188.00
2018-11-27T08:12:38.279Z,2236.00
2018-11-27T08:13:38.293Z,2240.00
2018-11-27T08:14:38.266Z,2232.00
2018-11-27T08:15:38.254Z,2240.00
2018-11-27T08:16:38.243Z,2252.00
2018-11-27T08:17:38.235Z,2280.00
2018-11-27T08:18:38.224Z,2292.00
2018-11-27T08:19:38.261Z,2280.00
2018-11-27T08:20:38.194Z,2324.00
2018-11-27T08:21:38.192Z,2444.00
2018-11-27T08:22:38.173Z,2628.00
2018-11-27T08:23:38.169Z,2748.00
2018-11-27T08:24:38.159Z,2764.00
2018-11-27T08:25:38.167Z,2756.00
2018-11-27T08:26:38.139Z,2764.00
2018-11-27T08:27:38.120Z,2744.00
2018-11-27T08:28:38.111Z,2776.00
2018-11-27T08:29:38.101Z,2844.00
2018-11-27T08:30:38.095Z,2960.00
2018-11-27T08:31:38.117Z,3088.00
2018-11-27T08:32:38.072Z,3164.00
2018-11-27T08:33:38.062Z,3232.00
2018-11-27T08:34:38.049Z,3172.00
2018-11-27T08:35:38.035Z,3204.00
2018-11-27T08:36:38.023Z,3372.00
2018-11-27T08:37:38.037Z,3628.00
2018-11-27T08:38:38.002Z,3888.00
2018-11-27T08:39:37.997Z,3912.00
2018-11-27T08:40:37.982Z,3688.00
2018-11-27T08:41:40.383Z,3692.00
2018-11-27T08:42:37.967Z,3808.00
2018-11-27T08:43:37.962Z,3740.00
2018-11-27T08:44:37.938Z,3688.00
2018-11-27T08:45:37.935Z,3820.00
2018-11-27T08:46:37.923Z,3932.00
2018-11-27T08:47:37.912Z,3964.00
2018-11-27T08:48:37.909Z,4180.00
2018-11-27T08:49:37.893Z,4248.00
2018-11-27T08:50:37.881Z,3720.00
2018-11-27T08:51:37.881Z,3464.00
2018-11-27T08:52:37.856Z,3160.00
2018-11-27T08:53:37.857Z,2960.00
2018-11-27T08:54:37.833Z,2972.00
2018-11-27T08:55:37.824Z,3032.00
2018-11-27T08:56:37.812Z,2928.00
2018-11-27T08:57:37.804Z,2988.00
2018-11-27T08:58:37.828Z,2884.00
2018-11-27T08:59:37.787Z,2756.00
2018-11-27T09:00:37.769Z,2652.00
2018-11-27T09:01:37.758Z,2596.00
2018-11-27T09:02:37.750Z,2560.00
2018-11-27T09:03:37.743Z,2552.00
2018-11-27T09:04:37.765Z,2536.00
2018-11-27T09:05:37.719Z,2524.00
2018-11-27T09:06:37.707Z,2532.00
2018-11-27T09:07:37.695Z,2532.00
2018-11-27T09:08:37.685Z,2544.00
2018-11-27T09:09:37.674Z,2544.00
2018-11-27T09:10:37.675Z,2552.00
2018-11-27T09:11:37.652Z,2548.00
2018-11-27T09:12:37.694Z,2524.00
2018-11-27T09:13:37.644Z,2512.00
2018-11-27T09:14:37.635Z,2504.00
2018-11-27T09:15:37.621Z,2512.00
2018-11-27T09:16:37.604Z,2520.00
2018-11-27T09:17:37.594Z,2544.00
2018-11-27T09:18:37.612Z,2576.00
2018-11-27T09:19:37.572Z,2608.00
2018-11-27T09:20:37.569Z,2588.00
2018-11-27T09:21:37.550Z,2556.00
2018-11-27T09:22:37.542Z,2552.00
2018-11-27T09:23:37.527Z,2556.00
2018-11-27T09:24:37.516Z,2572.00
2018-11-27T09:25:37.522Z,2604.00
2018-11-27T09:26:37.522Z,2648.00
2018-11-27T09:27:37.482Z,2656.00
2018-11-27T09:28:37.472Z,2624.00
2018-11-27T09:29:37.461Z,2632.00
2018-11-27T09:30:37.457Z,2720.00
2018-11-27T09:31:37.441Z,2800.00
2018-11-27T09:32:37.461Z,2788.00
2018-11-27T09:33:37.427Z,2732.00
2018-11-27T09:34:37.412Z,2724.00
2018-11-27T09:35:37.404Z,2760.00
2018-11-27T09:36:37.386Z,2792.00
2018-11-27T09:37:37.384Z,2776.00
2018-11-27T09:38:37.380Z,2700.00
2018-11-27T09:39:37.365Z,2652.00
2018-11-27T09:40:37.344Z,2648.00
2018-11-27T09:41:37.338Z,2644.00
2018-11-27T09:42:37.322Z,2616.00
2018-11-27T09:43:37.355Z,2592.00
2018-11-27T09:44:37.305Z,2576.00
2018-11-27T09:45:37.295Z,2556.00
2018-11-27T09:46:45.072Z,2536.00
2018-11-27T09:47:37.279Z,2532.00
2018-11-27T09:48:37.268Z,2552.00
2018-11-27T09:49:37.304Z,2580.00
2018-11-27T09:50:37.244Z,2584.00
2018-11-27T09:51:37.234Z,2528.00
2018-11-27T09:52:37.226Z,2448.00
2018-11-27T09:53:37.222Z,2392.00
2018-11-27T09:54:37.206Z,2352.00
2018-11-27T09:55:37.196Z,2332.00
2018-11-27T09:56:37.179Z,2320.00
2018-11-27T09:57:37.163Z,2332.00
2018-11-27T09:58:37.161Z,2356.00
2018-11-27T09:59:37.150Z,2372.00
2018-11-27T10:00:37.151Z,2368.00
2018-11-27T10:01:37.133Z,2368.00
2018-11-27T10:02:37.127Z,2376.00
2018-11-27T10:03:37.108Z,2376.00
2018-11-27T10:04:37.091Z,2372.00
2018-11-27T10:05:37.090Z,2364.00
2018-11-27T10:06:37.104Z,2344.00
2018-11-27T10:07:37.070Z,2348.00
2018-11-27T10:08:37.048Z,2360.00
2018-11-27T10:09:37.038Z,2368.00
2018-11-27T10:10:37.080Z,2392.00
2018-11-27T10:11:37.020Z,2392.00
2018-11-27T10:12:37.015Z,2376.00
2018-11-27T10:13:36.994Z,2392.00
2018-11-27T10:14:36.991Z,2416.00
2018-11-27T10:15:36.985Z,2456.00
2018-11-27T10:16:37.007Z,2512.00
2018-11-27T10:17:36.957Z,2552.00
2018-11-27T10:18:36.952Z,2472.00
2018-11-27T10:19:36.931Z,2544.00
2018-11-27T10:20:36.921Z,2512.00
2018-11-27T10:21:36.917Z,2492.00
2018-11-27T10:22:36.936Z,2476.00
2018-11-27T10:23:36.892Z,2472.00
2018-11-27T10:24:36.880Z,2456.00
2018-11-27T10:25:36.873Z,2416.00
2018-11-27T10:26:36.857Z,2380.00
2018-11-27T10:27:36.852Z,2376.00
2018-11-27T10:28:36.854Z,2392.00
2018-11-27T10:29:36.824Z,2436.00
2018-11-27T10:30:36.854Z,2496.00
2018-11-27T10:31:36.827Z,2568.00
2018-11-27T10:32:36.794Z,2608.00
2018-11-27T10:33:36.789Z,2628.00
2018-11-27T10:34:36.778Z,2620.00
2018-11-27T10:35:36.767Z,2608.00
2018-11-27T10:36:36.764Z,2624.00
2018-11-27T10:37:36.746Z,2660.00
2018-11-27T10:38:36.735Z,2704.00
2018-11-27T10:39:36.739Z,2728.00
2018-11-27T10:40:36.707Z,2728.00
2018-11-27T10:41:36.709Z,2712.00
2018-11-27T10:42:36.730Z,2664.00
2018-11-27T10:43:36.715Z,2648.00
2018-11-27T10:44:36.670Z,2672.00
2018-11-27T10:45:36.662Z,2704.00
2018-11-27T10:46:36.644Z,2716.00
2018-11-27T10:47:36.667Z,2700.00
2018-11-27T10:48:36.626Z,2716.00
2018-11-27T10:49:36.647Z,2748.00
2018-11-27T10:50:36.607Z,2780.00
2018-11-27T10:51:36.595Z,2796.00
2018-11-27T10:52:36.589Z,2824.00
2018-11-27T10:53:36.573Z,2848.00
2018-11-27T10:54:36.564Z,2884.00
2018-11-27T10:55:36.586Z,2908.00
2018-11-27T10:56:36.544Z,2884.00
2018-11-27T10:57:36.529Z,2848.00
2018-11-27T10:58:36.522Z,2832.00
2018-11-27T10:59:36.506Z,2868.00
2018-11-27T11:00:36.499Z,2924.00
2018-11-27T11:01:36.490Z,2972.00
2018-11-27T11:02:36.483Z,3020.00
2018-11-27T11:03:36.465Z,3060.00
2018-11-27T11:04:36.466Z,3108.00
2018-11-27T11:05:36.447Z,3104.00
2018-11-27T11:06:36.444Z,3096.00
2018-11-27T11:07:36.422Z,3072.00
2018-11-27T11:08:36.413Z,3036.00
2018-11-27T11:09:36.401Z,3044.00
2018-11-27T11:10:36.394Z,3072.00
2018-11-27T11:11:36.415Z,3104.00
2018-11-27T11:12:36.375Z,3116.00
2018-11-27T11:13:36.352Z,3132.00
2018-11-27T11:14:36.341Z,3172.00
2018-11-27T11:15:36.333Z,3236.00
2018-11-27T11:16:36.327Z,3300.00
2018-11-27T11:17:36.317Z,3316.00
2018-11-27T11:18:36.298Z,3256.00
2018-11-27T11:19:36.298Z,3140.00
2018-11-27T11:20:36.283Z,3028.00
2018-11-27T11:21:36.268Z,2936.00
2018-11-27T11:22:36.286Z,2856.00
2018-11-27T11:23:36.246Z,2808.00
2018-11-27T11:24:36.248Z,2808.00
2018-11-27T11:25:36.236Z,2828.00
2018-11-27T11:26:36.213Z,2836.00
2018-11-27T11:27:36.202Z,2816.00
2018-11-27T11:28:36.234Z,2760.00
2018-11-27T11:29:36.191Z,2724.00
2018-11-27T11:30:36.173Z,2716.00
2018-11-27T11:31:36.178Z,2720.00
2018-11-27T11:32:36.156Z,2720.00
2018-11-27T11:33:36.147Z,2720.00
2018-11-27T11:34:36.138Z,2720.00
2018-11-27T11:35:36.139Z,2728.00
2018-11-27T11:36:36.109Z,2716.00
2018-11-27T11:37:36.095Z,2680.00
2018-11-27T11:38:36.086Z,2632.00
2018-11-27T11:39:36.120Z,2584.00
2018-11-27T11:40:36.064Z,2580.00
2018-11-27T11:41:36.065Z,2616.00
2018-11-27T11:42:36.055Z,2652.00
2018-11-27T11:43:36.038Z,2652.00
2018-11-27T11:44:36.027Z,2664.00
2018-11-27T11:45:36.027Z,2700.00
2018-11-27T11:46:36.015Z,2740.00
2018-11-27T11:47:35.994Z,2772.00
2018-11-27T11:48:35.978Z,2796.00
2018-11-27T11:49:35.970Z,2792.00
2018-11-27T11:50:35.957Z,2764.00
2018-11-27T11:51:35.975Z,2708.00
2018-11-27T11:52:35.943Z,2684.00
2018-11-27T11:53:35.931Z,2688.00
2018-11-27T11:54:35.921Z,2696.00
2018-11-27T11:55:35.905Z,2700.00
2018-11-27T11:56:35.893Z,2696.00
2018-11-27T11:57:35.915Z,2696.00
2018-11-27T11:58:35.894Z,2712.00
2018-11-27T11:59:35.866Z,2708.00
2018-11-27T12:00:35.856Z,2692.00
2018-11-27T12:01:35.848Z,2668.00
2018-11-27T12:02:35.839Z,2628.00
2018-11-27T12:03:35.825Z,2572.00
2018-11-27T12:04:35.824Z,2532.00
2018-11-27T12:05:35.808Z,2508.00
2018-11-27T12:06:35.788Z,2484.00
2018-11-27T12:07:35.776Z,2464.00
2018-11-27T12:08:35.771Z,2436.00
2018-11-27T12:09:35.770Z,2388.00
2018-11-27T12:10:35.763Z,2344.00
2018-11-27T12:11:35.750Z,2312.00
2018-11-27T12:12:35.729Z,2288.00
2018-11-27T12:13:35.720Z,2264.00
2018-11-27T12:14:35.703Z,2260.00
2018-11-27T12:15:35.691Z,2240.00
2018-11-27T12:16:35.689Z,2224.00
2018-11-27T12:17:35.677Z,2228.00
2018-11-27T12:18:35.710Z,2256.00
2018-11-27T12:19:35.649Z,2280.00
2018-11-27T12:20:35.643Z,2260.00
2018-11-27T12:21:35.644Z,2196.00
2018-11-27T12:22:35.618Z,2120.00
2018-11-27T12:23:35.625Z,2052.00
2018-11-27T12:24:35.600Z,1996.00
2018-11-27T12:25:35.584Z,1940.00
2018-11-27T12:26:35.590Z,1900.00
2018-11-27T12:27:35.572Z,1884.00
2018-11-27T12:28:35.560Z,1884.00
2018-11-27T12:29:35.552Z,1884.00
2018-11-27T12:30:35.531Z,1872.00
2018-11-27T12:31:35.563Z,1868.00
2018-11-27T12:32:35.543Z,1860.00
2018-11-27T12:33:35.504Z,1832.00
2018-11-27T12:34:35.499Z,1800.00
2018-11-27T12:35:35.483Z,1768.00
2018-11-27T12:36:35.471Z,1724.00
2018-11-27T12:37:35.456Z,1696.00
2018-11-27T12:38:35.484Z,1676.00
2018-11-27T12:39:35.446Z,1656.00
2018-11-27T12:40:35.429Z,1632.00
2018-11-27T12:41:35.421Z,1600.00
2018-11-27T12:42:35.409Z,1576.00
2018-11-27T12:43:35.399Z,1568.00